Aviation Digital Data Service (ADDS)

Output produced by METARs form (1410 UTC 24 August 2019)
found at http://www.aviationweather.gov/metar/data/
 
Forecast for: VOTV (THIRUVANANTHAPUR, IN)
Text: TAF VOTV 241100Z 2412/2421 30010G20KT 5000 HZ SCT015 FEW025CB BKN090
Forecast period: 1200 to 1700 UTC 24 August 2019
Forecast type: FROM: standard forecast or significant change
Winds: from the WNW (300 degrees) at 12 MPH (10 knots; 5.1 m/s)
gusting to 23 MPH (20 knots; 10.3 m/s)
Visibility: 3 miles (5 km)
Ceiling: 9000 feet AGL
Clouds: scattered clouds at 1500 feet AGL
few clouds at 2500 feet AGL
broken clouds at 9000 feet AGL
Weather: HZ  (haze)
Text: TEMPO 2412/2415 2000 TSRA RA SCT010 FEW025CB BKN090
Forecast period: 1200 to 1500 UTC 24 August 2019
Forecast type: TEMPORARY: The following changes expected for less than half the time period
Visibility: 1.24 miles (2.00 km)
Ceiling: 9000 feet AGL
Clouds: scattered clouds at 1000 feet AGL
few clouds at 2500 feet AGL
broken clouds at 9000 feet AGL
Weather: TSRA RA  (rain associated with thunderstorm(s), moderate rain)
Text: BECMG 2417/2418 36005KT 4000 HZ
Forecast period: 1700 to 2100 UTC 24 August 2019
Forecast type: BECOMING: Conditions expected to become as follows by 1800 UTC 24 August 2019
Winds: from the N (360 degrees) at 6 MPH (5 knots; 2.6 m/s)
Visibility: 2.49 miles (4.01 km)
Ceiling: 9000 feet AGL
Clouds: scattered clouds at 1500 feet AGL
few clouds at 2500 feet AGL
broken clouds at 9000 feet AGL
Weather: HZ  (haze)